sensor_id;sensor_type;location;lat;lon;timestamp;temperature;humidity
43987;DHT22;29650;47.378;8.300;2022-07-11T00:02:03;17.90;65.50
43987;DHT22;29650;47.378;8.300;2022-07-11T00:04:32;17.80;66.10
43987;DHT22;29650;47.378;8.300;2022-07-11T00:07:02;17.90;65.90
43987;DHT22;29650;47.378;8.300;2022-07-11T00:09:29;17.90;65.70
43987;DHT22;29650;47.378;8.300;2022-07-11T00:11:57;18.00;65.30
43987;DHT22;29650;47.378;8.300;2022-07-11T00:14:24;17.60;66.00
43987;DHT22;29650;47.378;8.300;2022-07-11T00:16:53;17.50;66.80
43987;DHT22;29650;47.378;8.300;2022-07-11T00:19:20;18.00;66.30
43987;DHT22;29650;47.378;8.300;2022-07-11T00:21:47;17.90;66.00
43987;DHT22;29650;47.378;8.300;2022-07-11T00:24:14;17.60;66.30
43987;DHT22;29650;47.378;8.300;2022-07-11T00:26:43;17.30;67.00
43987;DHT22;29650;47.378;8.300;2022-07-11T00:29:10;17.70;67.10
43987;DHT22;29650;47.378;8.300;2022-07-11T00:31:37;17.70;66.70
43987;DHT22;29650;47.378;8.300;2022-07-11T00:34:05;17.80;66.10
43987;DHT22;29650;47.378;8.300;2022-07-11T00:36:32;17.60;66.00
43987;DHT22;29650;47.378;8.300;2022-07-11T00:39:00;17.50;66.40
43987;DHT22;29650;47.378;8.300;2022-07-11T00:41:27;17.50;66.70
43987;DHT22;29650;47.378;8.300;2022-07-11T00:43:56;17.70;66.60
43987;DHT22;29650;47.378;8.300;2022-07-11T00:46:24;17.80;66.70
43987;DHT22;29650;47.378;8.300;2022-07-11T00:48:51;17.90;66.30
43987;DHT22;29650;47.378;8.300;2022-07-11T00:51:21;17.60;66.80
43987;DHT22;29650;47.378;8.300;2022-07-11T00:53:49;17.70;66.90
43987;DHT22;29650;47.378;8.300;2022-07-11T00:56:17;17.90;66.30
43987;DHT22;29650;47.378;8.300;2022-07-11T00:58:46;17.70;66.50
43987;DHT22;29650;47.378;8.300;2022-07-11T01:01:13;17.50;67.10
43987;DHT22;29650;47.378;8.300;2022-07-11T01:03:40;17.50;67.10
43987;DHT22;29650;47.378;8.300;2022-07-11T01:06:07;17.60;67.10
43987;DHT22;29650;47.378;8.300;2022-07-11T01:08:37;17.80;66.50
43987;DHT22;29650;47.378;8.300;2022-07-11T01:11:04;17.80;66.60
43987;DHT22;29650;47.378;8.300;2022-07-11T01:13:34;17.90;66.70
43987;DHT22;29650;47.378;8.300;2022-07-11T01:16:12;17.80;67.00
43987;DHT22;29650;47.378;8.300;2022-07-11T01:18:43;17.70;67.70
43987;DHT22;29650;47.378;8.300;2022-07-11T01:21:18;17.50;68.20
43987;DHT22;29650;47.378;8.300;2022-07-11T01:23:50;17.70;67.80
43987;DHT22;29650;47.378;8.300;2022-07-11T01:26:18;17.80;67.60
43987;DHT22;29650;47.378;8.300;2022-07-11T01:28:46;17.70;67.60
43987;DHT22;29650;47.378;8.300;2022-07-11T01:31:13;17.30;69.30
43987;DHT22;29650;47.378;8.300;2022-07-11T01:33:40;17.30;69.90
43987;DHT22;29650;47.378;8.300;2022-07-11T01:36:08;17.30;70.00
43987;DHT22;29650;47.378;8.300;2022-07-11T01:38:35;17.20;70.00
43987;DHT22;29650;47.378;8.300;2022-07-11T01:41:04;17.20;69.60
43987;DHT22;29650;47.378;8.300;2022-07-11T01:43:31;17.40;69.20
43987;DHT22;29650;47.378;8.300;2022-07-11T01:45:58;17.30;69.50
43987;DHT22;29650;47.378;8.300;2022-07-11T01:48:25;17.50;68.80
43987;DHT22;29650;47.378;8.300;2022-07-11T01:50:53;17.60;68.50
43987;DHT22;29650;47.378;8.300;2022-07-11T01:53:20;17.40;68.40
43987;DHT22;29650;47.378;8.300;2022-07-11T01:55:47;17.40;68.50
43987;DHT22;29650;47.378;8.300;2022-07-11T01:58:15;17.40;68.70
43987;DHT22;29650;47.378;8.300;2022-07-11T02:00:42;17.50;68.80
43987;DHT22;29650;47.378;8.300;2022-07-11T02:03:09;17.50;68.70
43987;DHT22;29650;47.378;8.300;2022-07-11T02:05:36;17.40;69.10
43987;DHT22;29650;47.378;8.300;2022-07-11T02:08:05;17.20;69.50
43987;DHT22;29650;47.378;8.300;2022-07-11T02:10:43;17.20;69.40
43987;DHT22;29650;47.378;8.300;2022-07-11T02:13:10;17.30;69.70
43987;DHT22;29650;47.378;8.300;2022-07-11T02:15:40;17.10;69.30
43987;DHT22;29650;47.378;8.300;2022-07-11T02:18:07;16.90;70.30
43987;DHT22;29650;47.378;8.300;2022-07-11T02:20:37;17.00;70.30
43987;DHT22;29650;47.378;8.300;2022-07-11T02:23:04;17.10;70.30
43987;DHT22;29650;47.378;8.300;2022-07-11T02:25:31;17.40;69.40
43987;DHT22;29650;47.378;8.300;2022-07-11T02:28:00;17.40;69.30
43987;DHT22;29650;47.378;8.300;2022-07-11T02:30:27;17.30;69.70
43987;DHT22;29650;47.378;8.300;2022-07-11T02:32:56;17.40;69.50
43987;DHT22;29650;47.378;8.300;2022-07-11T02:35:22;17.40;69.20
43987;DHT22;29650;47.378;8.300;2022-07-11T02:37:49;17.40;69.40
43987;DHT22;29650;47.378;8.300;2022-07-11T02:40:16;17.20;69.20
43987;DHT22;29650;47.378;8.300;2022-07-11T02:42:43;17.10;69.30
43987;DHT22;29650;47.378;8.300;2022-07-11T02:45:11;17.00;70.40
43987;DHT22;29650;47.378;8.300;2022-07-11T02:47:38;17.10;70.20
43987;DHT22;29650;47.378;8.300;2022-07-11T02:50:09;17.20;69.90
43987;DHT22;29650;47.378;8.300;2022-07-11T02:52:37;16.90;69.90
43987;DHT22;29650;47.378;8.300;2022-07-11T02:55:06;16.90;70.80
43987;DHT22;29650;47.378;8.300;2022-07-11T02:57:34;17.00;70.00
43987;DHT22;29650;47.378;8.300;2022-07-11T03:00:01;17.00;70.80
43987;DHT22;29650;47.378;8.300;2022-07-11T03:02:30;17.00;70.60
43987;DHT22;29650;47.378;8.300;2022-07-11T03:04:57;17.10;71.30
43987;DHT22;29650;47.378;8.300;2022-07-11T03:07:26;16.60;71.60
43987;DHT22;29650;47.378;8.300;2022-07-11T03:09:54;16.60;71.80
43987;DHT22;29650;47.378;8.300;2022-07-11T03:12:21;16.50;72.50
43987;DHT22;29650;47.378;8.300;2022-07-11T03:14:48;16.40;72.40
43987;DHT22;29650;47.378;8.300;2022-07-11T03:17:15;16.50;72.40
43987;DHT22;29650;47.378;8.300;2022-07-11T03:19:42;16.40;72.90
43987;DHT22;29650;47.378;8.300;2022-07-11T03:22:10;16.50;72.70
43987;DHT22;29650;47.378;8.300;2022-07-11T03:24:38;16.50;72.70
43987;DHT22;29650;47.378;8.300;2022-07-11T03:27:07;16.70;72.40
43987;DHT22;29650;47.378;8.300;2022-07-11T03:29:34;16.30;72.40
43987;DHT22;29650;47.378;8.300;2022-07-11T03:32:01;16.70;72.10
43987;DHT22;29650;47.378;8.300;2022-07-11T03:34:28;16.70;71.30
43987;DHT22;29650;47.378;8.300;2022-07-11T03:36:55;16.70;71.40
43987;DHT22;29650;47.378;8.300;2022-07-11T03:39:22;16.10;73.20
43987;DHT22;29650;47.378;8.300;2022-07-11T03:41:50;16.20;73.80
43987;DHT22;29650;47.378;8.300;2022-07-11T03:44:17;16.30;73.30
43987;DHT22;29650;47.378;8.300;2022-07-11T03:46:44;16.50;72.70
43987;DHT22;29650;47.378;8.300;2022-07-11T03:49:11;16.20;72.70
43987;DHT22;29650;47.378;8.300;2022-07-11T03:51:38;16.40;72.90
43987;DHT22;29650;47.378;8.300;2022-07-11T03:54:05;16.00;74.50
43987;DHT22;29650;47.378;8.300;2022-07-11T03:56:32;16.10;74.80
43987;DHT22;29650;47.378;8.300;2022-07-11T03:59:01;16.30;73.60
43987;DHT22;29650;47.378;8.300;2022-07-11T04:01:28;16.10;74.30
43987;DHT22;29650;47.378;8.300;2022-07-11T04:03:54;16.30;74.10
43987;DHT22;29650;47.378;8.300;2022-07-11T04:06:22;16.30;73.90
43987;DHT22;29650;47.378;8.300;2022-07-11T04:08:48;16.10;74.00
43987;DHT22;29650;47.378;8.300;2022-07-11T04:11:15;16.30;74.20
43987;DHT22;29650;47.378;8.300;2022-07-11T04:13:42;16.20;73.90
43987;DHT22;29650;47.378;8.300;2022-07-11T04:16:10;16.10;73.90
43987;DHT22;29650;47.378;8.300;2022-07-11T04:18:37;16.30;74.40
43987;DHT22;29650;47.378;8.300;2022-07-11T04:21:05;16.30;74.40
43987;DHT22;29650;47.378;8.300;2022-07-11T04:23:31;16.30;74.50
43987;DHT22;29650;47.378;8.300;2022-07-11T04:25:58;16.20;75.40
43987;DHT22;29650;47.378;8.300;2022-07-11T04:28:25;16.20;75.80
43987;DHT22;29650;47.378;8.300;2022-07-11T04:30:52;16.40;75.00
43987;DHT22;29650;47.378;8.300;2022-07-11T04:33:20;16.50;74.70
43987;DHT22;29650;47.378;8.300;2022-07-11T04:35:47;16.50;74.60
43987;DHT22;29650;47.378;8.300;2022-07-11T04:38:14;16.50;74.80
43987;DHT22;29650;47.378;8.300;2022-07-11T04:40:41;16.60;74.60
43987;DHT22;29650;47.378;8.300;2022-07-11T04:43:08;16.60;74.70
43987;DHT22;29650;47.378;8.300;2022-07-11T04:45:35;16.60;74.80
43987;DHT22;29650;47.378;8.300;2022-07-11T04:48:02;16.70;74.80
43987;DHT22;29650;47.378;8.300;2022-07-11T04:50:31;17.00;73.60
43987;DHT22;29650;47.378;8.300;2022-07-11T04:52:58;16.80;73.70
43987;DHT22;29650;47.378;8.300;2022-07-11T04:55:25;16.70;73.30
43987;DHT22;29650;47.378;8.300;2022-07-11T04:57:51;17.10;73.50
43987;DHT22;29650;47.378;8.300;2022-07-11T05:00:19;17.10;73.10
43987;DHT22;29650;47.378;8.300;2022-07-11T05:02:46;16.80;73.00
43987;DHT22;29650;47.378;8.300;2022-07-11T05:05:13;17.00;73.20
43987;DHT22;29650;47.378;8.300;2022-07-11T05:07:41;17.00;72.60
43987;DHT22;29650;47.378;8.300;2022-07-11T05:10:08;17.30;72.40
43987;DHT22;29650;47.378;8.300;2022-07-11T05:12:35;17.30;72.30
43987;DHT22;29650;47.378;8.300;2022-07-11T05:15:03;17.30;71.90
43987;DHT22;29650;47.378;8.300;2022-07-11T05:17:30;17.40;72.30
43987;DHT22;29650;47.378;8.300;2022-07-11T05:19:57;17.40;72.30
43987;DHT22;29650;47.378;8.300;2022-07-11T05:22:24;17.70;72.20
43987;DHT22;29650;47.378;8.300;2022-07-11T05:24:52;17.50;71.70
43987;DHT22;29650;47.378;8.300;2022-07-11T05:27:19;17.70;71.40
43987;DHT22;29650;47.378;8.300;2022-07-11T05:29:46;18.40;74.10
43987;DHT22;29650;47.378;8.300;2022-07-11T05:32:13;19.70;80.00
43987;DHT22;29650;47.378;8.300;2022-07-11T05:34:40;19.10;71.20
43987;DHT22;29650;47.378;8.300;2022-07-11T05:37:07;18.10;69.90
43987;DHT22;29650;47.378;8.300;2022-07-11T05:39:34;17.80;70.60
43987;DHT22;29650;47.378;8.300;2022-07-11T05:42:02;17.80;70.70
43987;DHT22;29650;47.378;8.300;2022-07-11T05:44:29;18.00;70.70
43987;DHT22;29650;47.378;8.300;2022-07-11T05:46:59;17.90;70.30
43987;DHT22;29650;47.378;8.300;2022-07-11T05:49:27;17.80;69.50
43987;DHT22;29650;47.378;8.300;2022-07-11T05:51:54;18.20;69.60
43987;DHT22;29650;47.378;8.300;2022-07-11T05:54:21;18.50;69.20
43987;DHT22;29650;47.378;8.300;2022-07-11T05:56:48;18.40;68.50
43987;DHT22;29650;47.378;8.300;2022-07-11T05:59:16;18.20;69.10
43987;DHT22;29650;47.378;8.300;2022-07-11T06:01:43;18.40;68.60
43987;DHT22;29650;47.378;8.300;2022-07-11T06:04:10;18.00;69.60
43987;DHT22;29650;47.378;8.300;2022-07-11T06:06:37;18.20;69.80
43987;DHT22;29650;47.378;8.300;2022-07-11T06:09:05;18.50;70.00
43987;DHT22;29650;47.378;8.300;2022-07-11T06:11:30;18.40;68.90
43987;DHT22;29650;47.378;8.300;2022-07-11T06:13:58;18.60;68.70
43987;DHT22;29650;47.378;8.300;2022-07-11T06:16:27;18.70;68.60
43987;DHT22;29650;47.378;8.300;2022-07-11T06:18:54;18.80;68.50
43987;DHT22;29650;47.378;8.300;2022-07-11T06:21:21;18.80;69.10
43987;DHT22;29650;47.378;8.300;2022-07-11T06:23:48;19.10;68.30
43987;DHT22;29650;47.378;8.300;2022-07-11T06:26:15;19.10;67.60
43987;DHT22;29650;47.378;8.300;2022-07-11T06:28:42;18.70;67.10
43987;DHT22;29650;47.378;8.300;2022-07-11T06:31:09;18.90;67.50
43987;DHT22;29650;47.378;8.300;2022-07-11T06:33:38;18.90;66.80
43987;DHT22;29650;47.378;8.300;2022-07-11T06:36:06;18.90;66.70
43987;DHT22;29650;47.378;8.300;2022-07-11T06:38:33;18.60;67.40
43987;DHT22;29650;47.378;8.300;2022-07-11T06:41:01;18.90;66.60
43987;DHT22;29650;47.378;8.300;2022-07-11T06:43:28;19.10;65.80
43987;DHT22;29650;47.378;8.300;2022-07-11T06:45:56;19.00;66.10
43987;DHT22;29650;47.378;8.300;2022-07-11T06:48:23;18.70;66.60
43987;DHT22;29650;47.378;8.300;2022-07-11T06:50:52;18.70;68.30
43987;DHT22;29650;47.378;8.300;2022-07-11T06:53:19;18.60;67.10
43987;DHT22;29650;47.378;8.300;2022-07-11T06:55:46;19.00;67.30
43987;DHT22;29650;47.378;8.300;2022-07-11T06:58:13;19.00;67.60
43987;DHT22;29650;47.378;8.300;2022-07-11T07:00:57;18.90;67.30
43987;DHT22;29650;47.378;8.300;2022-07-11T07:03:24;19.10;67.80
43987;DHT22;29650;47.378;8.300;2022-07-11T07:05:53;19.40;66.40
43987;DHT22;29650;47.378;8.300;2022-07-11T07:08:22;19.40;65.80
43987;DHT22;29650;47.378;8.300;2022-07-11T07:10:50;19.50;66.10
43987;DHT22;29650;47.378;8.300;2022-07-11T07:13:20;19.50;65.10
43987;DHT22;29650;47.378;8.300;2022-07-11T07:15:49;19.30;65.40
43987;DHT22;29650;47.378;8.300;2022-07-11T07:18:16;19.60;66.30
43987;DHT22;29650;47.378;8.300;2022-07-11T07:20:43;19.70;65.70
43987;DHT22;29650;47.378;8.300;2022-07-11T07:23:11;19.40;65.60
43987;DHT22;29650;47.378;8.300;2022-07-11T07:25:38;19.70;65.70
43987;DHT22;29650;47.378;8.300;2022-07-11T07:28:05;19.80;64.80
43987;DHT22;29650;47.378;8.300;2022-07-11T07:30:32;19.80;67.40
43987;DHT22;29650;47.378;8.300;2022-07-11T07:32:59;19.80;65.10
43987;DHT22;29650;47.378;8.300;2022-07-11T07:35:26;19.80;65.30
43987;DHT22;29650;47.378;8.300;2022-07-11T07:37:53;19.80;64.70
43987;DHT22;29650;47.378;8.300;2022-07-11T07:40:22;19.30;64.30
43987;DHT22;29650;47.378;8.300;2022-07-11T07:42:49;19.90;65.40
43987;DHT22;29650;47.378;8.300;2022-07-11T07:45:16;20.00;64.80
43987;DHT22;29650;47.378;8.300;2022-07-11T07:47:43;20.20;64.70
43987;DHT22;29650;47.378;8.300;2022-07-11T07:50:10;20.50;65.00
43987;DHT22;29650;47.378;8.300;2022-07-11T07:52:37;20.70;64.40
43987;DHT22;29650;47.378;8.300;2022-07-11T07:55:05;20.60;64.30
43987;DHT22;29650;47.378;8.300;2022-07-11T07:57:33;20.60;64.30
43987;DHT22;29650;47.378;8.300;2022-07-11T08:00:00;20.80;64.90
43987;DHT22;29650;47.378;8.300;2022-07-11T08:02:45;20.60;63.30
43987;DHT22;29650;47.378;8.300;2022-07-11T08:05:12;20.90;63.00
43987;DHT22;29650;47.378;8.300;2022-07-11T08:07:39;21.10;63.10
43987;DHT22;29650;47.378;8.300;2022-07-11T08:10:06;20.80;60.80
43987;DHT22;29650;47.378;8.300;2022-07-11T08:12:35;20.60;62.00
43987;DHT22;29650;47.378;8.300;2022-07-11T08:15:02;20.90;61.70
43987;DHT22;29650;47.378;8.300;2022-07-11T08:17:29;20.70;61.90
43987;DHT22;29650;47.378;8.300;2022-07-11T08:19:56;20.90;62.10
43987;DHT22;29650;47.378;8.300;2022-07-11T08:22:22;21.20;61.60
43987;DHT22;29650;47.378;8.300;2022-07-11T08:24:50;21.30;62.30
43987;DHT22;29650;47.378;8.300;2022-07-11T08:27:17;21.20;62.30
43987;DHT22;29650;47.378;8.300;2022-07-11T08:29:46;21.00;62.70
43987;DHT22;29650;47.378;8.300;2022-07-11T08:32:12;21.20;61.50
43987;DHT22;29650;47.378;8.300;2022-07-11T08:34:39;21.00;61.00
43987;DHT22;29650;47.378;8.300;2022-07-11T08:37:06;21.00;61.30
43987;DHT22;29650;47.378;8.300;2022-07-11T08:39:33;21.30;60.70
43987;DHT22;29650;47.378;8.300;2022-07-11T08:42:00;21.30;60.00
43987;DHT22;29650;47.378;8.300;2022-07-11T08:44:27;21.70;62.00
43987;DHT22;29650;47.378;8.300;2022-07-11T08:46:56;21.60;61.10
43987;DHT22;29650;47.378;8.300;2022-07-11T08:49:24;21.40;60.70
43987;DHT22;29650;47.378;8.300;2022-07-11T08:51:53;21.70;60.40
43987;DHT22;29650;47.378;8.300;2022-07-11T08:54:20;21.90;62.10
43987;DHT22;29650;47.378;8.300;2022-07-11T08:56:47;22.00;61.80
43987;DHT22;29650;47.378;8.300;2022-07-11T08:59:16;21.80;60.50
43987;DHT22;29650;47.378;8.300;2022-07-11T09:01:45;21.70;61.10
43987;DHT22;29650;47.378;8.300;2022-07-11T09:04:15;22.10;61.50
43987;DHT22;29650;47.378;8.300;2022-07-11T09:06:42;22.20;59.50
43987;DHT22;29650;47.378;8.300;2022-07-11T09:09:09;22.20;60.50
43987;DHT22;29650;47.378;8.300;2022-07-11T09:11:50;21.90;60.20
43987;DHT22;29650;47.378;8.300;2022-07-11T09:14:22;21.80;59.80
43987;DHT22;29650;47.378;8.300;2022-07-11T09:16:54;21.90;60.20
43987;DHT22;29650;47.378;8.300;2022-07-11T09:19:23;22.30;60.40
43987;DHT22;29650;47.378;8.300;2022-07-11T09:21:57;22.30;59.60
43987;DHT22;29650;47.378;8.300;2022-07-11T09:24:52;22.20;60.60
43987;DHT22;29650;47.378;8.300;2022-07-11T09:27:44;22.60;59.70
43987;DHT22;29650;47.378;8.300;2022-07-11T09:30:16;22.40;58.00
43987;DHT22;29650;47.378;8.300;2022-07-11T09:32:52;22.30;58.90
43987;DHT22;29650;47.378;8.300;2022-07-11T09:35:21;22.40;61.10
43987;DHT22;29650;47.378;8.300;2022-07-11T09:37:48;22.10;59.90
43987;DHT22;29650;47.378;8.300;2022-07-11T09:40:16;22.70;60.10
43987;DHT22;29650;47.378;8.300;2022-07-11T09:42:48;22.80;59.70
43987;DHT22;29650;47.378;8.300;2022-07-11T09:45:16;22.90;60.40
43987;DHT22;29650;47.378;8.300;2022-07-11T09:47:45;23.00;60.00
43987;DHT22;29650;47.378;8.300;2022-07-11T09:50:12;22.80;59.20
43987;DHT22;29650;47.378;8.300;2022-07-11T09:52:44;23.10;59.50
43987;DHT22;29650;47.378;8.300;2022-07-11T09:55:24;23.30;61.10
43987;DHT22;29650;47.378;8.300;2022-07-11T09:57:52;23.30;59.70
43987;DHT22;29650;47.378;8.300;2022-07-11T10:00:19;23.40;59.90
43987;DHT22;29650;47.378;8.300;2022-07-11T10:02:46;23.40;60.70
43987;DHT22;29650;47.378;8.300;2022-07-11T10:05:14;23.20;59.60
43987;DHT22;29650;47.378;8.300;2022-07-11T10:07:43;23.10;60.80
43987;DHT22;29650;47.378;8.300;2022-07-11T10:10:10;23.20;60.00
43987;DHT22;29650;47.378;8.300;2022-07-11T10:12:37;23.30;60.30
43987;DHT22;29650;47.378;8.300;2022-07-11T10:15:07;23.40;60.10
43987;DHT22;29650;47.378;8.300;2022-07-11T10:17:42;23.60;59.10
43987;DHT22;29650;47.378;8.300;2022-07-11T10:20:17;23.80;59.70
43987;DHT22;29650;47.378;8.300;2022-07-11T10:22:50;23.80;59.00
43987;DHT22;29650;47.378;8.300;2022-07-11T10:25:25;23.70;59.50
43987;DHT22;29650;47.378;8.300;2022-07-11T10:28:03;23.90;59.80
43987;DHT22;29650;47.378;8.300;2022-07-11T10:30:47;23.50;59.00
43987;DHT22;29650;47.378;8.300;2022-07-11T10:33:17;23.70;59.60
43987;DHT22;29650;47.378;8.300;2022-07-11T10:35:46;23.60;59.30
43987;DHT22;29650;47.378;8.300;2022-07-11T10:38:15;24.10;59.10
43987;DHT22;29650;47.378;8.300;2022-07-11T10:40:45;24.00;57.90
43987;DHT22;29650;47.378;8.300;2022-07-11T10:43:14;23.80;58.90
43987;DHT22;29650;47.378;8.300;2022-07-11T10:45:58;24.10;60.20
43987;DHT22;29650;47.378;8.300;2022-07-11T10:48:26;24.70;58.30
43987;DHT22;29650;47.378;8.300;2022-07-11T10:51:05;24.30;57.90
43987;DHT22;29650;47.378;8.300;2022-07-11T10:53:40;24.00;57.90
43987;DHT22;29650;47.378;8.300;2022-07-11T10:56:24;24.00;57.20
43987;DHT22;29650;47.378;8.300;2022-07-11T10:59:00;23.70;57.20
43987;DHT22;29650;47.378;8.300;2022-07-11T11:01:30;24.20;57.80
43987;DHT22;29650;47.378;8.300;2022-07-11T11:06:57;24.20;58.00
43987;DHT22;29650;47.378;8.300;2022-07-11T11:09:38;24.20;56.90
43987;DHT22;29650;47.378;8.300;2022-07-11T11:12:05;24.50;57.10
43987;DHT22;29650;47.378;8.300;2022-07-11T11:14:32;24.30;57.40
43987;DHT22;29650;47.378;8.300;2022-07-11T11:20:00;24.80;57.50
43987;DHT22;29650;47.378;8.300;2022-07-11T11:22:27;24.70;57.40
43987;DHT22;29650;47.378;8.300;2022-07-11T11:24:56;24.30;55.60
43987;DHT22;29650;47.378;8.300;2022-07-11T11:27:25;24.50;55.50
43987;DHT22;29650;47.378;8.300;2022-07-11T11:29:53;24.60;55.70
43987;DHT22;29650;47.378;8.300;2022-07-11T11:32:21;24.50;55.50
43987;DHT22;29650;47.378;8.300;2022-07-11T11:34:48;24.50;55.80
43987;DHT22;29650;47.378;8.300;2022-07-11T11:37:16;24.40;55.80
43987;DHT22;29650;47.378;8.300;2022-07-11T11:39:44;24.90;56.10
43987;DHT22;29650;47.378;8.300;2022-07-11T11:42:14;25.30;58.30
43987;DHT22;29650;47.378;8.300;2022-07-11T11:44:53;25.20;54.80
43987;DHT22;29650;47.378;8.300;2022-07-11T11:47:21;24.60;55.00
43987;DHT22;29650;47.378;8.300;2022-07-11T11:49:49;25.00;56.80
43987;DHT22;29650;47.378;8.300;2022-07-11T11:52:17;25.20;56.10
43987;DHT22;29650;47.378;8.300;2022-07-11T11:54:49;25.20;55.20
43987;DHT22;29650;47.378;8.300;2022-07-11T11:57:22;25.40;55.30
43987;DHT22;29650;47.378;8.300;2022-07-11T11:59:50;25.30;54.70
43987;DHT22;29650;47.378;8.300;2022-07-11T12:02:25;25.40;54.20
43987;DHT22;29650;47.378;8.300;2022-07-11T12:04:52;25.40;55.00
43987;DHT22;29650;47.378;8.300;2022-07-11T12:07:28;25.60;55.10
43987;DHT22;29650;47.378;8.300;2022-07-11T12:09:57;25.60;53.50
43987;DHT22;29650;47.378;8.300;2022-07-11T12:12:27;25.70;54.90
43987;DHT22;29650;47.378;8.300;2022-07-11T12:15:32;25.90;56.00
43987;DHT22;29650;47.378;8.300;2022-07-11T12:18:20;26.20;55.80
43987;DHT22;29650;47.378;8.300;2022-07-11T12:20:47;26.30;53.80
43987;DHT22;29650;47.378;8.300;2022-07-11T12:23:16;25.80;53.60
43987;DHT22;29650;47.378;8.300;2022-07-11T12:25:44;25.90;54.80
43987;DHT22;29650;47.378;8.300;2022-07-11T12:28:12;26.10;53.60
43987;DHT22;29650;47.378;8.300;2022-07-11T12:30:40;25.70;54.20
43987;DHT22;29650;47.378;8.300;2022-07-11T12:33:09;25.90;53.30
43987;DHT22;29650;47.378;8.300;2022-07-11T12:35:36;26.10;53.40
43987;DHT22;29650;47.378;8.300;2022-07-11T12:38:03;26.00;53.00
43987;DHT22;29650;47.378;8.300;2022-07-11T12:40:30;25.50;53.40
43987;DHT22;29650;47.378;8.300;2022-07-11T12:42:57;26.20;54.30
43987;DHT22;29650;47.378;8.300;2022-07-11T12:45:26;25.40;53.60
43987;DHT22;29650;47.378;8.300;2022-07-11T12:47:52;25.60;54.00
43987;DHT22;29650;47.378;8.300;2022-07-11T12:50:20;25.80;54.50
43987;DHT22;29650;47.378;8.300;2022-07-11T12:52:53;25.70;53.50
43987;DHT22;29650;47.378;8.300;2022-07-11T12:55:24;25.70;53.50
43987;DHT22;29650;47.378;8.300;2022-07-11T12:58:04;26.20;54.70
43987;DHT22;29650;47.378;8.300;2022-07-11T13:00:34;26.40;53.70
43987;DHT22;29650;47.378;8.300;2022-07-11T13:03:02;26.50;53.40
43987;DHT22;29650;47.378;8.300;2022-07-11T13:05:30;26.60;53.40
43987;DHT22;29650;47.378;8.300;2022-07-11T13:08:21;26.90;51.90
43987;DHT22;29650;47.378;8.300;2022-07-11T13:11:06;26.60;51.70
43987;DHT22;29650;47.378;8.300;2022-07-11T13:13:32;26.20;53.00
43987;DHT22;29650;47.378;8.300;2022-07-11T13:16:01;26.50;53.30
43987;DHT22;29650;47.378;8.300;2022-07-11T13:18:30;25.90;52.10
43987;DHT22;29650;47.378;8.300;2022-07-11T13:20:57;26.70;52.60
43987;DHT22;29650;47.378;8.300;2022-07-11T13:23:24;26.90;51.50
43987;DHT22;29650;47.378;8.300;2022-07-11T13:25:51;26.70;50.90
43987;DHT22;29650;47.378;8.300;2022-07-11T13:28:18;26.40;51.20
43987;DHT22;29650;47.378;8.300;2022-07-11T13:30:45;26.50;52.40
43987;DHT22;29650;47.378;8.300;2022-07-11T13:33:13;26.60;52.70
43987;DHT22;29650;47.378;8.300;2022-07-11T13:35:40;26.40;51.80
43987;DHT22;29650;47.378;8.300;2022-07-11T13:38:07;26.20;51.90
43987;DHT22;29650;47.378;8.300;2022-07-11T13:40:34;26.90;52.50
43987;DHT22;29650;47.378;8.300;2022-07-11T13:43:01;27.00;51.70
43987;DHT22;29650;47.378;8.300;2022-07-11T13:45:29;27.20;51.00
43987;DHT22;29650;47.378;8.300;2022-07-11T13:47:56;27.10;52.10
43987;DHT22;29650;47.378;8.300;2022-07-11T13:50:25;26.70;52.10
43987;DHT22;29650;47.378;8.300;2022-07-11T13:52:52;26.70;52.60
43987;DHT22;29650;47.378;8.300;2022-07-11T13:55:22;27.20;51.60
43987;DHT22;29650;47.378;8.300;2022-07-11T13:57:50;26.80;51.00
43987;DHT22;29650;47.378;8.300;2022-07-11T14:00:18;27.30;52.90
43987;DHT22;29650;47.378;8.300;2022-07-11T14:02:46;27.30;52.40
43987;DHT22;29650;47.378;8.300;2022-07-11T14:05:13;27.80;54.20
43987;DHT22;29650;47.378;8.300;2022-07-11T14:07:42;27.50;51.80
43987;DHT22;29650;47.378;8.300;2022-07-11T14:10:09;27.60;52.60
43987;DHT22;29650;47.378;8.300;2022-07-11T14:12:36;27.60;52.40
43987;DHT22;29650;47.378;8.300;2022-07-11T14:15:04;27.90;52.40
43987;DHT22;29650;47.378;8.300;2022-07-11T14:17:31;27.80;53.00
43987;DHT22;29650;47.378;8.300;2022-07-11T14:19:58;27.70;52.30
43987;DHT22;29650;47.378;8.300;2022-07-11T14:22:25;27.90;52.00
43987;DHT22;29650;47.378;8.300;2022-07-11T14:24:53;28.00;53.10
43987;DHT22;29650;47.378;8.300;2022-07-11T14:27:20;27.70;51.10
43987;DHT22;29650;47.378;8.300;2022-07-11T14:29:47;27.80;51.30
43987;DHT22;29650;47.378;8.300;2022-07-11T14:32:14;27.90;53.60
43987;DHT22;29650;47.378;8.300;2022-07-11T14:34:43;27.90;51.50
43987;DHT22;29650;47.378;8.300;2022-07-11T14:37:10;27.80;51.50
43987;DHT22;29650;47.378;8.300;2022-07-11T14:39:37;27.90;50.50
43987;DHT22;29650;47.378;8.300;2022-07-11T14:42:05;28.20;50.60
43987;DHT22;29650;47.378;8.300;2022-07-11T14:44:33;28.10;50.90
43987;DHT22;29650;47.378;8.300;2022-07-11T14:47:00;28.10;50.90
43987;DHT22;29650;47.378;8.300;2022-07-11T14:49:27;28.00;50.70
43987;DHT22;29650;47.378;8.300;2022-07-11T14:51:54;27.70;51.30
43987;DHT22;29650;47.378;8.300;2022-07-11T14:54:21;27.90;51.50
43987;DHT22;29650;47.378;8.300;2022-07-11T14:56:48;28.10;51.20
43987;DHT22;29650;47.378;8.300;2022-07-11T14:59:17;27.80;52.30
43987;DHT22;29650;47.378;8.300;2022-07-11T15:01:43;27.90;52.30
43987;DHT22;29650;47.378;8.300;2022-07-11T15:04:11;28.50;52.70
43987;DHT22;29650;47.378;8.300;2022-07-11T15:06:37;28.40;51.60
43987;DHT22;29650;47.378;8.300;2022-07-11T15:09:21;28.60;52.90
43987;DHT22;29650;47.378;8.300;2022-07-11T15:12:06;28.60;51.00
43987;DHT22;29650;47.378;8.300;2022-07-11T15:14:51;27.90;50.90
43987;DHT22;29650;47.378;8.300;2022-07-11T15:17:19;27.80;51.50
43987;DHT22;29650;47.378;8.300;2022-07-11T15:19:46;28.30;52.40
43987;DHT22;29650;47.378;8.300;2022-07-11T15:22:13;28.70;51.20
43987;DHT22;29650;47.378;8.300;2022-07-11T15:24:40;28.70;49.90
43987;DHT22;29650;47.378;8.300;2022-07-11T15:27:08;28.80;49.50
43987;DHT22;29650;47.378;8.300;2022-07-11T15:29:35;28.60;51.60
43987;DHT22;29650;47.378;8.300;2022-07-11T15:32:04;28.70;52.10
43987;DHT22;29650;47.378;8.300;2022-07-11T15:34:31;28.90;49.90
43987;DHT22;29650;47.378;8.300;2022-07-11T15:36:58;28.60;49.50
43987;DHT22;29650;47.378;8.300;2022-07-11T15:39:25;28.90;50.50
43987;DHT22;29650;47.378;8.300;2022-07-11T15:41:52;28.90;51.10
43987;DHT22;29650;47.378;8.300;2022-07-11T15:44:19;28.60;50.50
43987;DHT22;29650;47.378;8.300;2022-07-11T15:46:45;29.10;50.20